createdAt,value
2023-01-19T00:01:41.474Z,99828.97
2023-01-19T00:04:13.721Z,99837.97
2023-01-19T00:06:43.219Z,99831.22
2023-01-19T00:09:13.170Z,99827.94
2023-01-19T00:11:42.164Z,99824.06
2023-01-19T00:14:11.820Z,99819.13
2023-01-19T00:16:42.452Z,99840.13
2023-01-19T00:19:14.811Z,99836.69
2023-01-19T00:21:44.495Z,99852.75
2023-01-19T00:24:15.114Z,99851.81
2023-01-19T00:26:45.882Z,99861.28
2023-01-19T00:29:16.221Z,99868.28
2023-01-19T00:31:46.978Z,99852.94
2023-01-19T00:34:16.546Z,99853.34
2023-01-19T00:36:46.828Z,99851.34
2023-01-19T00:39:18.420Z,99841.53
2023-01-19T00:42:05.793Z,99850.59
2023-01-19T00:44:35.566Z,99845.09
2023-01-19T00:47:06.466Z,99845.56
2023-01-19T00:49:36.113Z,99839.94
2023-01-19T00:52:05.896Z,99825.97
2023-01-19T00:54:37.676Z,99853.06
2023-01-19T00:57:07.186Z,99850.22
2023-01-19T00:59:37.108Z,99849.13
2023-01-19T01:02:08.907Z,99865.31
2023-01-19T01:04:39.130Z,99867.34
2023-01-19T01:07:09.646Z,99861.00
2023-01-19T01:09:39.356Z,99867.94
2023-01-19T01:12:09.386Z,99867.19
2023-01-19T01:14:38.921Z,99863.25
2023-01-19T01:17:11.631Z,99870.59
2023-01-19T01:19:41.065Z,99839.94
2023-01-19T01:22:11.049Z,99881.13
2023-01-19T01:24:40.442Z,99881.00
2023-01-19T01:27:10.821Z,99888.84
2023-01-19T01:29:41.558Z,99896.84
2023-01-19T01:32:12.355Z,99901.63
2023-01-19T01:34:42.276Z,99898.69
2023-01-19T01:37:11.731Z,99924.88
2023-01-19T01:39:41.271Z,99928.22
2023-01-19T01:42:18.993Z,99928.59
2023-01-19T01:44:51.600Z,99930.88
2023-01-19T01:47:28.575Z,99940.16
2023-01-19T01:50:06.065Z,99973.06
2023-01-19T01:52:38.176Z,99954.66
2023-01-19T01:55:09.579Z,99954.31
2023-01-19T01:57:47.470Z,99959.75
2023-01-19T02:00:18.027Z,99959.44
2023-01-19T02:02:51.926Z,99942.97
2023-01-19T02:05:25.555Z,99950.34
2023-01-19T02:08:17.267Z,99951.91
2023-01-19T02:11:05.823Z,99957.44
2023-01-19T02:13:38.322Z,99968.03
2023-01-19T02:16:09.220Z,99968.31
2023-01-19T02:18:41.346Z,99965.94
2023-01-19T02:21:14.464Z,99978.25
2023-01-19T02:23:48.014Z,99993.47
2023-01-19T02:26:23.229Z,99996.69
2023-01-19T02:28:57.552Z,99992.38
2023-01-19T02:31:32.117Z,99993.13
2023-01-19T02:34:04.120Z,100051.53
2023-01-19T02:36:39.785Z,100038.47
2023-01-19T02:39:12.488Z,99940.69
2023-01-19T02:41:48.174Z,100040.16
2023-01-19T02:44:19.810Z,100027.28
2023-01-19T02:46:49.423Z,100009.25
2023-01-19T02:49:19.178Z,100000.00
2023-01-19T02:51:48.988Z,100000.41
2023-01-19T02:54:42.314Z,99996.94
2023-01-19T02:57:22.309Z,99996.94
2023-01-19T03:00:08.088Z,99993.78
2023-01-19T03:02:49.899Z,99988.34
2023-01-19T03:05:41.697Z,99980.13
2023-01-19T03:08:23.588Z,99985.47
2023-01-19T03:11:01.449Z,100005.56
2023-01-19T03:13:42.176Z,100039.84
2023-01-19T03:16:17.620Z,100030.34
2023-01-19T03:18:54.545Z,100028.91
2023-01-19T03:21:27.616Z,100038.56
2023-01-19T03:24:03.224Z,100030.41
2023-01-19T03:26:40.420Z,100046.19
2023-01-19T03:29:11.540Z,100036.50
2023-01-19T03:31:42.812Z,100037.81
2023-01-19T03:34:14.652Z,100039.41
2023-01-19T03:36:51.015Z,100037.97
2023-01-19T03:39:24.088Z,100015.47
2023-01-19T03:41:59.790Z,100026.34
2023-01-19T03:44:32.546Z,100031.25
2023-01-19T03:47:04.296Z,100035.94
2023-01-19T03:49:35.967Z,100031.03
2023-01-19T03:52:06.509Z,100035.53
2023-01-19T03:54:36.157Z,100023.50
2023-01-19T03:57:07.112Z,100033.53
2023-01-19T03:59:36.466Z,100041.84
2023-01-19T04:02:06.634Z,100048.03
2023-01-19T04:04:36.364Z,100043.00
2023-01-19T04:07:07.018Z,100047.06
2023-01-19T04:09:36.284Z,100046.97
2023-01-19T04:12:07.797Z,100048.56
2023-01-19T04:14:37.886Z,100037.91
2023-01-19T04:17:07.814Z,100056.47
2023-01-19T04:19:38.203Z,99978.13
2023-01-19T04:22:08.756Z,100054.59
2023-01-19T04:24:39.111Z,100019.94
2023-01-19T04:27:11.007Z,100042.22
2023-01-19T04:29:41.659Z,100042.03
2023-01-19T04:32:11.722Z,100047.44
2023-01-19T04:39:00.006Z,100036.41
2023-01-19T04:41:30.316Z,100037.38
2023-01-19T04:44:02.621Z,100037.69
2023-01-19T04:46:32.352Z,100043.72
2023-01-19T04:49:03.754Z,100039.69
2023-01-19T04:51:35.753Z,100037.91
2023-01-19T04:54:05.576Z,100037.91
2023-01-19T04:56:35.010Z,100035.72
2023-01-19T04:59:05.853Z,100051.53
2023-01-19T05:01:35.598Z,100056.78
2023-01-19T05:04:07.186Z,100062.66
2023-01-19T05:06:37.537Z,100067.81
2023-01-19T05:09:08.009Z,100067.84
2023-01-19T05:11:38.117Z,100069.41
2023-01-19T05:14:10.010Z,100073.31
2023-01-19T05:16:39.604Z,100076.31
2023-01-19T05:19:09.012Z,100081.19
2023-01-19T05:21:38.266Z,100079.69
2023-01-19T05:24:08.404Z,100084.13
2023-01-19T05:26:38.109Z,100092.44
2023-01-19T05:29:10.373Z,100087.47
2023-01-19T05:32:08.404Z,100093.69
2023-01-19T05:34:37.240Z,100089.06
2023-01-19T05:37:06.044Z,100087.38
2023-01-19T05:39:34.759Z,100090.16
2023-01-19T05:42:05.872Z,100089.13
2023-01-19T05:44:36.095Z,100094.41
2023-01-19T05:47:07.066Z,100098.84
2023-01-19T05:49:35.984Z,100106.00
2023-01-19T05:52:04.938Z,100111.06
2023-01-19T05:54:33.713Z,100095.03
2023-01-19T05:57:03.134Z,100103.53
2023-01-19T05:59:35.742Z,100109.25
2023-01-19T06:02:04.605Z,100102.16
2023-01-19T06:04:33.646Z,100121.56
2023-01-19T06:07:03.511Z,100108.16
2023-01-19T06:09:32.687Z,100115.84
2023-01-19T06:12:01.624Z,100122.13
2023-01-19T06:14:32.935Z,100117.81
2023-01-19T06:17:02.992Z,100124.03
2023-01-19T06:19:31.706Z,100125.75
2023-01-19T06:22:00.706Z,100134.34
2023-01-19T06:24:29.719Z,100137.16
2023-01-19T06:26:58.451Z,100133.75
2023-01-19T06:29:28.774Z,100143.38
2023-01-19T06:31:58.262Z,100138.28
2023-01-19T06:34:29.075Z,100144.25
2023-01-19T06:36:58.136Z,100149.75
2023-01-19T06:39:27.506Z,100022.66
2023-01-19T06:41:56.248Z,100159.72
2023-01-19T06:44:26.001Z,100161.91
2023-01-19T06:47:14.907Z,100161.66
2023-01-19T06:49:45.325Z,100160.91
2023-01-19T06:52:18.396Z,100191.91
2023-01-19T06:54:47.398Z,100176.84
2023-01-19T06:57:16.422Z,100183.44
2023-01-19T06:59:46.423Z,100186.53
2023-01-19T07:02:26.325Z,100189.25
2023-01-19T07:04:58.445Z,100185.78
2023-01-19T07:07:27.710Z,100192.16
2023-01-19T07:09:56.766Z,100198.56
2023-01-19T07:12:26.361Z,100200.25
2023-01-19T07:14:55.345Z,100202.69
2023-01-19T07:17:24.505Z,100206.19
2023-01-19T07:19:53.703Z,100207.13
2023-01-19T07:22:24.197Z,100216.06
2023-01-19T07:24:53.130Z,100214.25
2023-01-19T07:27:22.505Z,100222.38
2023-01-19T07:29:51.760Z,100224.97
2023-01-19T07:32:20.797Z,100231.91
2023-01-19T07:34:49.750Z,100238.47
2023-01-19T07:37:18.608Z,100236.50
2023-01-19T07:39:48.748Z,100241.75
2023-01-19T07:42:17.605Z,100240.81
2023-01-19T07:44:46.307Z,100246.31
2023-01-19T07:47:15.408Z,100257.22
2023-01-19T07:49:44.183Z,100262.66
2023-01-19T07:52:15.700Z,100265.19
2023-01-19T07:54:45.392Z,100272.94
2023-01-19T07:57:16.908Z,100272.50
2023-01-19T07:59:46.230Z,100293.91
2023-01-19T08:02:16.370Z,100293.09
2023-01-19T08:04:46.129Z,100296.69
2023-01-19T08:07:15.096Z,100292.69
2023-01-19T08:09:44.033Z,100296.03
2023-01-19T08:12:12.957Z,100308.06
2023-01-19T08:14:46.226Z,100298.91
2023-01-19T08:17:15.576Z,100300.41
2023-01-19T08:19:45.104Z,100301.94
2023-01-19T08:22:13.845Z,100311.19
2023-01-19T08:24:44.628Z,100317.09
2023-01-19T08:27:14.510Z,100315.47
2023-01-19T08:29:44.292Z,100298.28
2023-01-19T08:32:14.920Z,100325.88
2023-01-19T08:34:44.543Z,100323.78
2023-01-19T08:37:13.823Z,100325.00
2023-01-19T08:39:43.053Z,100329.59
2023-01-19T08:42:12.777Z,100337.00
2023-01-19T08:44:57.318Z,100336.22
2023-01-19T08:47:30.906Z,100341.84
2023-01-19T08:49:59.738Z,100339.22
2023-01-19T08:52:29.402Z,100325.31
2023-01-19T08:54:58.510Z,100344.56
2023-01-19T08:57:28.533Z,100343.25
2023-01-19T08:59:57.431Z,100294.28
2023-01-19T09:02:26.466Z,100349.91
2023-01-19T09:04:58.186Z,100344.72
2023-01-19T09:07:30.602Z,100329.13
2023-01-19T09:10:01.296Z,100356.78
2023-01-19T09:12:30.350Z,100355.25
2023-01-19T09:14:59.188Z,100354.75
2023-01-19T09:17:28.041Z,100373.34
2023-01-19T09:19:58.471Z,100359.31
2023-01-19T09:22:29.871Z,100224.28
2023-01-19T09:24:58.922Z,100362.13
2023-01-19T09:27:27.822Z,100372.41
2023-01-19T09:29:56.732Z,100365.56
2023-01-19T09:32:27.918Z,100376.66
2023-01-19T09:34:58.096Z,100372.28
2023-01-19T09:37:26.866Z,100370.44
2023-01-19T09:39:57.868Z,100373.41
2023-01-19T09:42:35.203Z,100377.28
2023-01-19T09:45:08.361Z,100382.88
2023-01-19T09:47:40.155Z,100377.16
2023-01-19T09:50:17.708Z,100385.31
2023-01-19T09:52:53.499Z,100385.38
2023-01-19T09:55:26.817Z,100385.19
2023-01-19T09:57:56.312Z,100349.25
2023-01-19T10:00:28.098Z,100384.56
2023-01-19T10:03:00.961Z,100387.78
2023-01-19T10:05:36.988Z,100397.34
2023-01-19T10:08:18.864Z,100392.19
2023-01-19T10:10:53.398Z,100166.81
2023-01-19T10:13:37.665Z,100397.19
2023-01-19T10:16:27.858Z,100392.75
2023-01-19T10:19:01.804Z,100397.47
2023-01-19T10:21:38.899Z,100385.50
2023-01-19T10:24:17.835Z,100399.69
2023-01-19T10:26:52.525Z,100415.97
2023-01-19T10:29:29.356Z,100403.56
2023-01-19T10:32:06.141Z,100401.22
2023-01-19T10:34:34.968Z,100402.53
2023-01-19T10:37:13.775Z,100402.22
2023-01-19T10:39:43.768Z,100381.94
2023-01-19T10:42:16.722Z,100408.38
2023-01-19T10:44:46.495Z,100254.56
2023-01-19T10:47:18.843Z,100409.72
2023-01-19T10:49:49.106Z,100386.59
2023-01-19T10:52:30.353Z,100402.81
2023-01-19T10:55:02.177Z,100402.59
2023-01-19T10:57:34.626Z,100396.91
2023-01-19T11:00:05.034Z,100407.25
2023-01-19T11:02:36.524Z,100411.88
2023-01-19T11:05:25.815Z,100288.28
2023-01-19T11:07:56.680Z,100407.75
2023-01-19T11:10:26.984Z,100420.19
2023-01-19T11:13:03.298Z,100414.41
2023-01-19T11:15:36.001Z,100419.88
2023-01-19T11:18:10.072Z,100435.16
2023-01-19T11:20:50.689Z,100422.94
2023-01-19T11:23:26.804Z,100417.63
2023-01-19T11:25:59.000Z,100417.13
2023-01-19T11:28:33.840Z,100417.03
2023-01-19T11:31:05.560Z,100417.09
2023-01-19T11:33:36.962Z,100407.97
2023-01-19T11:36:08.164Z,100297.81
2023-01-19T11:38:45.305Z,100413.47
2023-01-19T11:41:19.888Z,100407.16
2023-01-19T11:43:51.805Z,100417.53
2023-01-19T11:46:25.354Z,100391.06
2023-01-19T11:49:02.166Z,100414.16
2023-01-19T11:51:36.710Z,100414.69
2023-01-19T11:54:19.317Z,100418.63
2023-01-19T11:56:52.251Z,100412.44
2023-01-19T11:59:25.137Z,100419.03
2023-01-19T12:01:57.850Z,100389.91
2023-01-19T12:04:31.541Z,100418.78
2023-01-19T12:07:06.940Z,100426.53
2023-01-19T12:09:44.270Z,100422.16
2023-01-19T12:12:22.351Z,100311.50
2023-01-19T12:14:57.230Z,100423.81
2023-01-19T12:17:28.381Z,100423.28
2023-01-19T12:20:05.173Z,100415.19
2023-01-19T12:22:42.523Z,100430.53
2023-01-19T12:25:21.883Z,100428.16
2023-01-19T12:27:52.123Z,100430.09
2023-01-19T12:30:24.030Z,100427.97
2023-01-19T12:32:53.387Z,100395.31
2023-01-19T12:35:57.441Z,100423.72
2023-01-19T12:38:37.652Z,100298.56
2023-01-19T12:41:29.980Z,100430.28
2023-01-19T12:44:34.227Z,100416.00
2023-01-19T12:47:23.185Z,100417.59
2023-01-19T12:49:54.588Z,100419.19
2023-01-19T12:52:30.754Z,100418.63
2023-01-19T12:55:03.636Z,100419.81
2023-01-19T12:57:39.535Z,100419.75
2023-01-19T13:00:29.304Z,100414.13
2023-01-19T13:02:59.872Z,100416.13
2023-01-19T13:05:58.321Z,100416.69
2023-01-19T13:08:56.877Z,100421.50
2023-01-19T13:11:27.662Z,100424.84
2023-01-19T13:14:36.571Z,100416.97
2023-01-19T13:17:25.807Z,100413.66
2023-01-19T13:20:20.344Z,100415.84
2023-01-19T13:22:54.017Z,100408.38
2023-01-19T13:25:30.089Z,100416.00
2023-01-19T13:28:02.218Z,100414.91
2023-01-19T13:30:36.548Z,100419.84
2023-01-19T13:33:17.308Z,100418.31
2023-01-19T13:35:55.339Z,100423.63
2023-01-19T13:38:25.160Z,100425.84
2023-01-19T13:40:56.218Z,100407.75
2023-01-19T13:43:30.982Z,100433.06
2023-01-19T13:46:02.130Z,100437.03
2023-01-19T13:48:33.696Z,100437.91
2023-01-19T13:51:05.513Z,100432.75
2023-01-19T13:53:35.547Z,100434.31
2023-01-19T13:56:09.827Z,100392.78
2023-01-19T13:58:38.629Z,100437.13
2023-01-19T14:01:22.495Z,100434.00
2023-01-19T14:03:52.540Z,100436.75
2023-01-19T14:06:33.319Z,100312.50
2023-01-19T14:09:17.742Z,100451.81
2023-01-19T14:11:48.850Z,100426.72
2023-01-19T14:14:25.721Z,100421.44
2023-01-19T14:16:56.163Z,100446.94
2023-01-19T14:19:25.281Z,100456.66
2023-01-19T14:22:02.726Z,100328.72
2023-01-19T14:24:33.211Z,100451.09
2023-01-19T14:27:14.495Z,100377.38
2023-01-19T14:29:44.391Z,100465.06
2023-01-19T14:32:17.033Z,100463.22
2023-01-19T14:34:47.708Z,100470.34
2023-01-19T14:37:23.144Z,100464.22
2023-01-19T14:39:56.528Z,100473.81
2023-01-19T14:42:29.541Z,100471.75
2023-01-19T14:45:02.662Z,100471.34
2023-01-19T14:47:41.175Z,100476.50
2023-01-19T14:50:23.605Z,100479.88
2023-01-19T14:52:57.613Z,100465.22
2023-01-19T14:55:33.147Z,100480.16
2023-01-19T14:58:02.143Z,100481.44
2023-01-19T15:00:31.093Z,100473.25
2023-01-19T15:03:01.257Z,100477.69
2023-01-19T15:05:30.183Z,100480.22
2023-01-19T15:07:59.065Z,100481.91
2023-01-19T15:10:27.948Z,100479.25
2023-01-19T15:12:57.761Z,100497.97
2023-01-19T15:15:32.633Z,100468.63
2023-01-19T15:18:07.755Z,100499.94
2023-01-19T15:20:39.944Z,100505.34
2023-01-19T15:23:11.140Z,100504.56
2023-01-19T15:25:40.632Z,100508.91
2023-01-19T15:28:12.595Z,100506.44
2023-01-19T15:30:41.581Z,100511.34
2023-01-19T15:33:18.607Z,100510.00
2023-01-19T15:35:47.534Z,100515.41
2023-01-19T15:38:16.623Z,100511.22
2023-01-19T15:40:51.463Z,100512.56
2023-01-19T15:43:21.111Z,100514.06
2023-01-19T15:45:53.157Z,100521.59
2023-01-19T15:48:23.416Z,100519.78
2023-01-19T15:50:52.104Z,100509.59
2023-01-19T15:53:24.389Z,100490.38
2023-01-19T15:55:56.940Z,100522.09
2023-01-19T15:58:26.695Z,100522.53
2023-01-19T16:00:56.540Z,100524.59
2023-01-19T16:03:27.272Z,100521.47
2023-01-19T16:05:56.008Z,100527.03
2023-01-19T16:08:24.769Z,100528.75
2023-01-19T16:10:53.832Z,100529.63
2023-01-19T16:13:22.826Z,100533.16
2023-01-19T16:15:51.479Z,100507.84
2023-01-19T16:18:20.525Z,100535.06
2023-01-19T16:20:50.748Z,100535.94
2023-01-19T16:23:19.462Z,100527.66
2023-01-19T16:25:57.409Z,100542.13
2023-01-19T16:28:27.585Z,100549.28
2023-01-19T16:30:56.364Z,100547.88
2023-01-19T16:33:25.192Z,100554.94
2023-01-19T16:35:55.487Z,100548.06
2023-01-19T16:38:24.799Z,100551.97
2023-01-19T16:40:54.073Z,100557.72
2023-01-19T16:43:22.871Z,100556.63
2023-01-19T16:46:00.592Z,100561.75
2023-01-19T16:48:31.827Z,100541.66
2023-01-19T16:51:05.163Z,100569.78
2023-01-19T16:53:35.579Z,100553.03
2023-01-19T16:56:06.998Z,100566.78
2023-01-19T16:58:38.286Z,100577.81
2023-01-19T17:01:13.879Z,100577.06
2023-01-19T17:03:43.395Z,100583.06
2023-01-19T17:06:15.756Z,100576.25
2023-01-19T17:08:44.528Z,100585.63
2023-01-19T17:11:19.785Z,100578.78
2023-01-19T17:13:48.672Z,100588.13
2023-01-19T17:16:17.824Z,100556.75
2023-01-19T17:18:46.791Z,100596.56
2023-01-19T17:21:18.085Z,100622.47
2023-01-19T17:23:49.016Z,100607.13
2023-01-19T17:26:18.519Z,100607.84
2023-01-19T17:28:47.987Z,100609.13
2023-01-19T17:31:19.095Z,100604.88
2023-01-19T17:33:50.043Z,100610.00
2023-01-19T17:36:25.598Z,100590.56
2023-01-19T17:38:56.982Z,100611.78
2023-01-19T17:41:28.039Z,100609.34
2023-01-19T17:43:57.691Z,100616.28
2023-01-19T17:46:28.845Z,100563.78
2023-01-19T17:49:00.375Z,100618.13
2023-01-19T17:51:31.678Z,100624.91
2023-01-19T17:54:04.143Z,100627.53
2023-01-19T17:56:37.522Z,100628.56
2023-01-19T17:59:08.199Z,100621.69
2023-01-19T18:01:40.677Z,100615.38
2023-01-19T18:04:11.901Z,100624.25
2023-01-19T18:06:45.378Z,100629.31
2023-01-19T18:09:14.192Z,100625.25
2023-01-19T18:11:43.607Z,100643.25
2023-01-19T18:14:14.690Z,100643.38
2023-01-19T18:16:43.403Z,100651.81
2023-01-19T18:19:12.041Z,100633.59
2023-01-19T18:21:41.054Z,100657.81
2023-01-19T18:24:13.352Z,100656.88
2023-01-19T18:26:42.640Z,100562.28
2023-01-19T18:29:11.348Z,100428.22
2023-01-19T18:31:40.087Z,100676.97
2023-01-19T18:34:09.079Z,100673.63
2023-01-19T18:36:37.758Z,100681.72
2023-01-19T18:39:06.502Z,100687.00
2023-01-19T18:41:40.766Z,100680.66
2023-01-19T18:44:09.777Z,100637.41
2023-01-19T18:46:39.168Z,100666.00
2023-01-19T18:49:08.235Z,100634.19
2023-01-19T18:51:37.684Z,100640.00
2023-01-19T18:54:06.899Z,100639.81
2023-01-19T18:56:37.355Z,100645.88
2023-01-19T18:59:06.215Z,100648.72
2023-01-19T19:01:36.554Z,100651.28
2023-01-19T19:04:07.472Z,100646.19
2023-01-19T19:06:36.702Z,100663.25
2023-01-19T19:09:05.695Z,100679.38
2023-01-19T19:11:51.339Z,100684.38
2023-01-19T19:14:20.235Z,100696.75
2023-01-19T19:16:49.038Z,100702.81
2023-01-19T19:19:18.855Z,100708.22
2023-01-19T19:21:47.697Z,100709.84
2023-01-19T19:24:19.196Z,100710.56
2023-01-19T19:26:47.986Z,100704.91
2023-01-19T19:29:18.080Z,100706.06
2023-01-19T19:31:47.383Z,100697.31
2023-01-19T19:34:16.355Z,100679.13
2023-01-19T19:36:45.116Z,100702.47
2023-01-19T19:39:14.214Z,100693.41
2023-01-19T19:41:43.215Z,100690.03
2023-01-19T19:44:13.193Z,100691.22
2023-01-19T19:46:43.660Z,100680.31
2023-01-19T19:49:12.623Z,100701.63
2023-01-19T19:51:42.013Z,100705.44
2023-01-19T19:54:10.928Z,100709.81
2023-01-19T19:56:39.607Z,100717.56
2023-01-19T19:59:08.550Z,100733.91
2023-01-19T20:01:37.509Z,100583.50
2023-01-19T20:04:12.979Z,100726.09
2023-01-19T20:06:44.964Z,100736.28
2023-01-19T20:09:15.235Z,100729.34
2023-01-19T20:11:46.860Z,100742.94
2023-01-19T20:14:17.326Z,100754.06
2023-01-19T20:16:46.189Z,100746.09
2023-01-19T20:19:18.222Z,100765.94
2023-01-19T20:21:47.065Z,100761.47
2023-01-19T20:24:20.036Z,100744.78
2023-01-19T20:26:51.133Z,100766.13
2023-01-19T20:29:21.361Z,100764.38
2023-01-19T20:31:54.559Z,100780.47
2023-01-19T20:34:27.430Z,100766.97
2023-01-19T20:36:56.703Z,100775.31
2023-01-19T20:39:26.601Z,100763.56
2023-01-19T20:41:55.763Z,100767.88
2023-01-19T20:44:27.143Z,100761.13
2023-01-19T20:46:56.607Z,100768.84
2023-01-19T20:49:26.927Z,100777.44
2023-01-19T20:51:56.116Z,100777.38
2023-01-19T20:54:27.972Z,100780.75
2023-01-19T20:56:57.690Z,100758.78
2023-01-19T20:59:26.653Z,100771.56
2023-01-19T21:01:55.814Z,100791.97
2023-01-19T21:04:26.154Z,100799.78
2023-01-19T21:06:55.070Z,100789.31
2023-01-19T21:09:24.350Z,100797.09
2023-01-19T21:11:56.533Z,100809.03
2023-01-19T21:14:26.974Z,100796.19
2023-01-19T21:16:58.534Z,100806.50
2023-01-19T21:19:29.764Z,100791.06
2023-01-19T21:22:01.638Z,100808.00
2023-01-19T21:24:34.787Z,100820.09
2023-01-19T21:27:03.977Z,100829.56
2023-01-19T21:29:33.008Z,100837.22
2023-01-19T21:32:05.120Z,100832.56
2023-01-19T21:34:36.766Z,100862.75
2023-01-19T21:37:06.257Z,100861.09
2023-01-19T21:39:35.951Z,100875.03
2023-01-19T21:42:05.265Z,100866.34
2023-01-19T21:44:34.474Z,100858.75
2023-01-19T21:47:06.695Z,100858.00
2023-01-19T21:49:37.448Z,100857.97
2023-01-19T21:52:08.985Z,100865.19
2023-01-19T21:54:38.324Z,100861.22
2023-01-19T21:57:07.702Z,100868.94
2023-01-19T21:59:37.042Z,100855.53
2023-01-19T22:02:06.479Z,100744.28
2023-01-19T22:04:38.119Z,100857.31
2023-01-19T22:07:08.137Z,100836.88
2023-01-19T22:09:37.711Z,100853.00
2023-01-19T22:12:10.927Z,100825.84
2023-01-19T22:14:40.107Z,100862.38
2023-01-19T22:17:09.366Z,100864.81
2023-01-19T22:19:39.697Z,100865.00
2023-01-19T22:22:09.223Z,100868.25
2023-01-19T22:24:38.449Z,100827.34
2023-01-19T22:27:09.230Z,100866.50
2023-01-19T22:29:38.501Z,100873.47
2023-01-19T22:32:07.855Z,100875.25
2023-01-19T22:34:37.098Z,100842.09
2023-01-19T22:37:07.585Z,100858.22
2023-01-19T22:39:37.225Z,100870.88
2023-01-19T22:42:09.407Z,100864.00
2023-01-19T22:44:38.436Z,100876.06
2023-01-19T22:47:08.070Z,100880.13
2023-01-19T22:49:37.329Z,100886.31
2023-01-19T22:52:08.040Z,100861.50
2023-01-19T22:54:37.515Z,100885.34
2023-01-19T22:57:11.934Z,100884.78
2023-01-19T22:59:41.117Z,100744.59
2023-01-19T23:02:12.403Z,100890.84
2023-01-19T23:04:41.732Z,100895.06
2023-01-19T23:07:12.116Z,100899.38
2023-01-19T23:09:41.622Z,100893.44
2023-01-19T23:12:11.005Z,100895.06
2023-01-19T23:14:40.230Z,100900.94
2023-01-19T23:17:09.503Z,100864.50
2023-01-19T23:19:38.565Z,100888.25
2023-01-19T23:22:07.752Z,100890.03
2023-01-19T23:24:38.346Z,100892.53
2023-01-19T23:27:11.241Z,100888.25
2023-01-19T23:29:40.352Z,100892.50
2023-01-19T23:32:09.658Z,100896.78
2023-01-19T23:34:39.143Z,100902.00
2023-01-19T23:37:08.679Z,100901.16
2023-01-19T23:39:39.207Z,100901.19
2023-01-19T23:42:09.023Z,100913.94
2023-01-19T23:44:38.696Z,100913.00
2023-01-19T23:47:08.271Z,100918.97
2023-01-19T23:49:39.660Z,100922.41
2023-01-19T23:52:08.976Z,100913.84
2023-01-19T23:54:39.491Z,100930.94
2023-01-19T23:57:08.860Z,100923.06
2023-01-19T23:59:38.024Z,100930.16
